createdAt,value
2023-03-21T00:00:43.616Z,15.53
2023-03-21T00:03:46.748Z,12.00
2023-03-21T00:06:48.813Z,17.97
2023-03-21T00:09:50.660Z,16.83
2023-03-21T00:12:55.344Z,15.43
2023-03-21T00:16:05.878Z,19.53
2023-03-21T00:19:14.386Z,16.47
2023-03-21T00:22:16.173Z,15.23
2023-03-21T00:25:18.049Z,15.27
2023-03-21T00:28:20.342Z,20.40
2023-03-21T00:31:23.840Z,18.60
2023-03-21T00:34:36.519Z,14.17
2023-03-21T00:37:45.424Z,14.20
2023-03-21T00:40:49.271Z,11.43
2023-03-21T00:43:51.964Z,20.03
2023-03-21T00:47:06.227Z,20.87
2023-03-21T00:50:10.160Z,20.53
2023-03-21T00:53:12.407Z,23.63
2023-03-21T00:56:14.134Z,18.20
2023-03-21T00:59:16.571Z,20.83
2023-03-21T01:02:22.912Z,22.17
2023-03-21T01:05:53.694Z,21.63
2023-03-21T01:08:55.663Z,25.60
2023-03-21T01:11:57.392Z,22.93
2023-03-21T01:14:59.144Z,17.13
2023-03-21T01:18:01.187Z,17.07
2023-03-21T01:21:08.567Z,17.30
2023-03-21T01:24:11.010Z,14.10
2023-03-21T01:27:12.727Z,17.83
2023-03-21T01:30:21.573Z,10.90
2023-03-21T01:33:25.015Z,16.27
2023-03-21T01:36:27.436Z,20.10
2023-03-21T01:39:35.273Z,17.70
2023-03-21T01:42:36.989Z,12.87
2023-03-21T01:46:01.161Z,13.80
2023-03-21T01:49:29.605Z,17.90
2023-03-21T01:52:41.849Z,17.27
2023-03-21T01:55:53.332Z,20.47
2023-03-21T01:59:18.231Z,19.47
2023-03-21T02:02:52.651Z,18.43
2023-03-21T02:06:36.650Z,16.80
2023-03-21T02:09:58.585Z,14.93
2023-03-21T02:13:09.425Z,17.40
2023-03-21T02:16:39.730Z,16.90
2023-03-21T02:19:53.437Z,19.70
2023-03-21T02:23:19.194Z,21.40
2023-03-21T02:26:28.497Z,17.43
2023-03-21T02:30:04.624Z,22.87
2023-03-21T02:33:40.062Z,23.63
2023-03-21T02:37:10.034Z,15.27
2023-03-21T02:40:15.400Z,19.53
2023-03-21T02:43:23.969Z,15.93
2023-03-21T02:47:04.634Z,17.80
2023-03-21T02:50:09.218Z,18.70
2023-03-21T02:53:15.659Z,22.10
2023-03-21T02:56:20.042Z,19.23
2023-03-21T02:59:28.972Z,21.83
2023-03-21T03:02:33.756Z,23.03
2023-03-21T03:05:40.924Z,19.07
2023-03-21T03:09:03.346Z,16.83
2023-03-21T03:12:21.379Z,20.00
2023-03-21T03:15:48.001Z,12.67
2023-03-21T03:19:01.257Z,17.40
2023-03-21T03:22:10.280Z,17.60
2023-03-21T03:25:23.109Z,16.07
2023-03-21T03:28:38.072Z,20.87
2023-03-21T03:31:57.391Z,24.70
2023-03-21T03:35:00.870Z,16.30
2023-03-21T03:38:08.091Z,20.97
2023-03-21T03:41:19.511Z,23.00
2023-03-21T03:44:29.908Z,22.43
2023-03-21T03:48:06.749Z,23.97
2023-03-21T03:51:47.589Z,18.23
2023-03-21T03:55:18.867Z,28.27
2023-03-21T03:58:36.040Z,23.97
2023-03-21T04:01:38.315Z,18.07
2023-03-21T04:04:41.851Z,24.27
2023-03-21T04:07:43.944Z,19.60
2023-03-21T04:10:45.701Z,26.13
2023-03-21T04:13:49.150Z,22.77
2023-03-21T04:16:56.877Z,23.93
2023-03-21T04:20:10.939Z,20.57
2023-03-21T04:23:13.891Z,19.87
2023-03-21T04:26:21.097Z,27.30
2023-03-21T04:29:45.725Z,24.63
2023-03-21T04:33:16.808Z,24.40
2023-03-21T04:36:38.819Z,23.77
2023-03-21T04:39:42.868Z,28.27
2023-03-21T04:42:45.844Z,23.63
2023-03-21T04:45:47.871Z,20.07
2023-03-21T04:48:49.768Z,23.20
2023-03-21T04:51:51.460Z,25.27
2023-03-21T04:54:55.235Z,21.33
2023-03-21T04:57:58.221Z,21.43
2023-03-21T05:01:02.375Z,21.10
2023-03-21T05:04:04.885Z,20.37
2023-03-21T05:07:08.986Z,22.70
2023-03-21T05:10:12.253Z,16.70
2023-03-21T05:13:16.003Z,20.10
2023-03-21T05:16:17.829Z,21.10
2023-03-21T05:19:23.514Z,23.67
2023-03-21T05:22:28.140Z,15.13
2023-03-21T05:25:38.215Z,17.27
2023-03-21T05:28:48.014Z,19.43
2023-03-21T05:31:50.223Z,17.03
2023-03-21T05:34:51.977Z,15.87
2023-03-21T05:37:57.381Z,16.03
2023-03-21T05:41:00.853Z,22.90
2023-03-21T05:44:03.081Z,15.53
2023-03-21T05:47:06.091Z,14.17
2023-03-21T05:50:18.458Z,13.20
2023-03-21T05:53:29.422Z,14.50
2023-03-21T05:56:31.653Z,20.77
2023-03-21T05:59:42.409Z,22.80
2023-03-21T06:02:45.073Z,24.30
2023-03-21T06:06:12.930Z,19.83
2023-03-21T06:09:22.736Z,23.50
2023-03-21T06:12:29.511Z,19.33
2023-03-21T06:15:42.924Z,25.80
2023-03-21T06:18:50.548Z,19.23
2023-03-21T06:22:12.290Z,19.47
2023-03-21T06:25:16.682Z,12.33
2023-03-21T06:28:18.605Z,17.00
2023-03-21T06:31:25.072Z,13.07
2023-03-21T06:34:30.855Z,12.40
2023-03-21T06:37:33.171Z,20.03
2023-03-21T06:40:35.574Z,21.90
2023-03-21T06:43:37.501Z,15.07
2023-03-21T06:46:39.303Z,21.57
2023-03-21T06:49:43.626Z,17.37
2023-03-21T06:52:47.170Z,15.53
2023-03-21T06:55:51.346Z,11.60
2023-03-21T06:58:54.632Z,12.30
2023-03-21T07:02:14.111Z,18.07
2023-03-21T07:05:31.053Z,17.67
2023-03-21T07:08:32.936Z,18.10
2023-03-21T07:11:36.665Z,15.17
2023-03-21T07:14:39.314Z,15.83
2023-03-21T07:17:41.048Z,14.40
2023-03-21T07:20:48.254Z,16.83
2023-03-21T07:23:50.363Z,11.80
2023-03-21T07:26:52.166Z,16.10
2023-03-21T07:29:54.023Z,13.73
2023-03-21T07:32:55.834Z,16.03
2023-03-21T07:35:57.987Z,14.73
2023-03-21T07:38:59.824Z,15.90
2023-03-21T07:42:02.738Z,19.63
2023-03-21T07:45:15.571Z,26.37
2023-03-21T07:48:19.033Z,13.80
2023-03-21T07:51:20.895Z,19.13
2023-03-21T07:54:23.584Z,19.67
2023-03-21T07:57:25.452Z,14.47
2023-03-21T08:00:27.385Z,17.33
2023-03-21T08:03:29.858Z,16.93
2023-03-21T08:06:32.414Z,17.90
2023-03-21T08:09:34.410Z,14.53
2023-03-21T08:12:36.154Z,16.53
2023-03-21T08:15:39.790Z,14.37
2023-03-21T08:18:42.692Z,12.13
2023-03-21T08:21:44.472Z,15.90
2023-03-21T08:24:46.179Z,13.33
2023-03-21T08:27:49.377Z,15.20
2023-03-21T08:30:51.520Z,15.07
2023-03-21T08:33:54.720Z,16.00
2023-03-21T08:36:56.555Z,15.87
2023-03-21T08:39:58.338Z,17.03
2023-03-21T08:43:00.413Z,16.50
2023-03-21T08:46:04.219Z,21.30
2023-03-21T08:49:06.222Z,16.63
2023-03-21T08:52:08.062Z,15.37
2023-03-21T08:55:11.511Z,13.93
2023-03-21T08:58:13.480Z,11.63
2023-03-21T09:01:15.707Z,9.17
2023-03-21T09:04:18.831Z,16.97
2023-03-21T09:07:22.111Z,11.27
2023-03-21T09:10:24.222Z,11.00
2023-03-21T09:13:26.572Z,12.03
2023-03-21T09:16:28.491Z,11.13
2023-03-21T09:19:31.811Z,11.73
2023-03-21T09:22:33.658Z,17.23
2023-03-21T09:25:36.759Z,17.37
2023-03-21T09:28:39.148Z,9.70
2023-03-21T09:31:43.981Z,17.83
2023-03-21T09:34:46.067Z,13.10
2023-03-21T09:37:49.060Z,15.17
2023-03-21T09:40:56.546Z,8.57
2023-03-21T09:44:24.655Z,14.70
2023-03-21T09:47:33.072Z,13.47
2023-03-21T09:50:39.643Z,15.53
2023-03-21T09:53:44.858Z,13.17
2023-03-21T09:56:47.591Z,15.20
2023-03-21T09:59:53.546Z,17.23
2023-03-21T10:03:07.327Z,12.13
2023-03-21T10:06:15.916Z,10.20
2023-03-21T10:09:24.443Z,13.50
2023-03-21T10:12:30.596Z,13.57
2023-03-21T10:15:32.582Z,7.13
2023-03-21T10:18:36.323Z,6.93
2023-03-21T10:21:59.735Z,8.23
2023-03-21T10:25:02.752Z,12.10
2023-03-21T10:28:07.400Z,12.67
2023-03-21T10:31:15.312Z,11.40
2023-03-21T10:34:39.952Z,12.40
2023-03-21T10:37:42.146Z,12.53
2023-03-21T10:40:44.294Z,11.87
2023-03-21T10:43:51.015Z,11.87
2023-03-21T10:46:55.099Z,13.53
2023-03-21T10:50:08.217Z,19.33
2023-03-21T10:53:20.852Z,13.03
2023-03-21T10:56:28.975Z,14.77
2023-03-21T10:59:38.719Z,9.27
2023-03-21T11:02:41.406Z,9.93
2023-03-21T11:05:43.429Z,15.90
2023-03-21T11:08:53.988Z,14.13
2023-03-21T11:12:02.405Z,10.70
2023-03-21T11:15:24.367Z,11.23
2023-03-21T11:18:31.099Z,15.90
2023-03-21T11:21:37.377Z,14.50
2023-03-21T11:24:39.668Z,12.20
2023-03-21T11:27:57.529Z,13.90
2023-03-21T11:31:02.732Z,13.90
2023-03-21T11:34:08.472Z,12.40
2023-03-21T11:37:19.481Z,15.77
2023-03-21T11:40:25.979Z,11.97
2023-03-21T11:43:39.188Z,12.63
2023-03-21T11:46:41.403Z,10.77
2023-03-21T11:49:43.194Z,9.37
2023-03-21T11:53:22.067Z,14.77
2023-03-21T11:56:34.290Z,8.97
2023-03-21T11:59:39.155Z,10.30
2023-03-21T12:02:57.811Z,9.27
2023-03-21T12:06:03.446Z,9.00
2023-03-21T12:09:08.290Z,5.77
2023-03-21T12:12:39.714Z,6.83
2023-03-21T12:16:02.182Z,7.90
2023-03-21T12:19:49.031Z,8.80
2023-03-21T12:22:53.909Z,9.20
2023-03-21T12:26:10.773Z,5.17
2023-03-21T12:29:33.804Z,7.73
2023-03-21T12:32:57.867Z,8.00
2023-03-21T12:36:27.774Z,14.73
2023-03-21T12:39:50.132Z,4.27
2023-03-21T12:43:22.873Z,6.90
2023-03-21T12:46:31.280Z,9.27
2023-03-21T12:49:42.412Z,5.77
2023-03-21T12:53:01.467Z,12.57
2023-03-21T12:56:07.840Z,12.23
2023-03-21T12:59:23.095Z,8.10
2023-03-21T13:02:39.075Z,15.40
2023-03-21T13:05:47.483Z,9.07
2023-03-21T13:09:05.848Z,8.80
2023-03-21T13:12:19.344Z,3.50
2023-03-21T13:15:48.074Z,8.33
2023-03-21T13:18:56.258Z,4.87
2023-03-21T13:22:03.756Z,6.70
2023-03-21T13:25:24.861Z,6.30
2023-03-21T13:28:29.770Z,6.77
2023-03-21T13:31:48.881Z,7.47
2023-03-21T13:34:58.002Z,5.00
2023-03-21T13:38:21.853Z,5.60
2023-03-21T13:41:47.176Z,5.20
2023-03-21T13:44:52.934Z,4.57
2023-03-21T13:47:58.646Z,4.30
2023-03-21T13:51:02.297Z,5.23
2023-03-21T13:54:14.007Z,11.20
2023-03-21T13:57:40.949Z,7.03
2023-03-21T14:00:42.672Z,7.77
2023-03-21T14:03:46.873Z,6.07
2023-03-21T14:07:01.857Z,4.10
2023-03-21T14:10:08.483Z,3.57
2023-03-21T14:13:16.492Z,6.70
2023-03-21T14:16:19.001Z,6.13
2023-03-21T14:19:20.891Z,8.27
2023-03-21T14:22:23.110Z,2.97
2023-03-21T14:25:37.148Z,4.37
2023-03-21T14:28:49.338Z,3.43
2023-03-21T14:31:51.190Z,5.23
2023-03-21T14:34:55.425Z,4.17
2023-03-21T14:38:01.183Z,3.60
2023-03-21T14:41:03.987Z,3.23
2023-03-21T14:44:28.740Z,4.47
2023-03-21T14:47:32.175Z,3.00
2023-03-21T14:50:47.939Z,5.03
2023-03-21T14:53:49.667Z,7.23
2023-03-21T14:56:56.570Z,8.30
2023-03-21T15:00:02.100Z,7.57
2023-03-21T15:03:04.490Z,8.73
2023-03-21T15:06:13.006Z,4.13
2023-03-21T15:09:16.350Z,3.87
2023-03-21T15:12:18.045Z,4.20
2023-03-21T15:15:20.984Z,4.90
2023-03-21T15:18:28.473Z,6.83
2023-03-21T15:21:36.123Z,5.27
2023-03-21T15:24:42.881Z,5.70
2023-03-21T15:27:44.861Z,7.03
2023-03-21T15:30:50.297Z,6.83
2023-03-21T15:33:53.827Z,6.70
2023-03-21T15:37:00.744Z,5.73
2023-03-21T15:40:25.533Z,5.97
2023-03-21T15:43:27.231Z,6.27
2023-03-21T15:46:43.176Z,5.17
2023-03-21T15:49:54.836Z,5.63
2023-03-21T15:53:00.212Z,3.50
2023-03-21T15:56:04.195Z,3.27
2023-03-21T15:59:06.465Z,3.23
2023-03-21T16:02:17.966Z,5.27
2023-03-21T16:05:30.577Z,8.53
2023-03-21T16:08:35.726Z,3.80
2023-03-21T16:11:43.359Z,3.00
2023-03-21T16:14:46.312Z,5.00
2023-03-21T16:18:16.123Z,5.13
2023-03-21T16:21:20.969Z,3.77
2023-03-21T16:24:22.678Z,4.93
2023-03-21T16:27:24.367Z,5.43
2023-03-21T16:30:26.182Z,5.40
2023-03-21T16:33:28.133Z,4.10
2023-03-21T16:36:33.447Z,6.93
2023-03-21T16:39:35.232Z,6.30
2023-03-21T16:42:36.962Z,5.67
2023-03-21T16:45:38.739Z,7.37
2023-03-21T16:48:41.656Z,5.57
2023-03-21T16:51:43.380Z,4.53
2023-03-21T16:54:45.184Z,5.90
2023-03-21T16:57:48.683Z,5.13
2023-03-21T17:00:50.397Z,5.63
2023-03-21T17:03:52.906Z,3.07
2023-03-21T17:06:55.407Z,5.83
2023-03-21T17:09:57.110Z,4.97
2023-03-21T17:12:59.309Z,3.23
2023-03-21T17:16:01.020Z,7.47
2023-03-21T17:19:04.257Z,7.93
2023-03-21T17:22:06.130Z,4.23
2023-03-21T17:25:07.923Z,4.77
2023-03-21T17:28:09.630Z,6.60
2023-03-21T17:31:16.227Z,5.13
2023-03-21T17:34:18.123Z,12.83
2023-03-21T17:37:20.402Z,8.77
2023-03-21T17:40:26.090Z,4.80
2023-03-21T17:43:27.907Z,4.53
2023-03-21T17:46:34.144Z,5.40
2023-03-21T17:49:35.896Z,4.63
2023-03-21T17:52:37.877Z,11.40
2023-03-21T17:55:40.008Z,5.40
2023-03-21T17:58:41.838Z,7.03
2023-03-21T18:01:43.758Z,8.60
2023-03-21T18:04:45.577Z,4.83
2023-03-21T18:08:17.526Z,5.77
2023-03-21T18:11:12.553Z,9.10
2023-03-21T18:14:18.092Z,8.17
2023-03-21T18:17:21.271Z,6.33
2023-03-21T18:20:44.658Z,6.23
2023-03-21T18:23:49.523Z,5.20
2023-03-21T18:26:51.716Z,6.47
2023-03-21T18:30:25.809Z,8.93
2023-03-21T18:33:16.524Z,8.20
2023-03-21T18:36:25.540Z,4.90
2023-03-21T18:39:29.447Z,8.07
2023-03-21T18:42:31.573Z,6.20
2023-03-21T18:45:33.608Z,6.07
2023-03-21T18:48:36.092Z,5.47
2023-03-21T18:51:37.776Z,7.07
2023-03-21T18:54:39.663Z,8.40
2023-03-21T18:57:42.382Z,6.50
2023-03-21T19:00:44.465Z,6.37
2023-03-21T19:04:11.611Z,7.83
2023-03-21T19:07:08.538Z,7.50
2023-03-21T19:10:20.391Z,7.07
2023-03-21T19:13:22.349Z,5.40
2023-03-21T19:16:28.380Z,8.17
2023-03-21T19:19:32.123Z,5.80
2023-03-21T19:22:33.851Z,14.90
2023-03-21T19:25:35.620Z,7.53
2023-03-21T19:28:37.336Z,8.93
2023-03-21T19:31:39.116Z,7.63
2023-03-21T19:34:40.835Z,11.27
2023-03-21T19:37:42.603Z,9.37
2023-03-21T19:40:44.362Z,7.07
2023-03-21T19:43:54.117Z,12.40
2023-03-21T19:46:56.407Z,12.07
2023-03-21T19:53:20.384Z,9.17
2023-03-21T19:56:26.284Z,9.67
2023-03-21T19:59:29.036Z,8.80
2023-03-21T20:02:35.982Z,9.97
2023-03-21T20:05:38.446Z,8.67
2023-03-21T20:12:03.280Z,9.90
2023-03-21T20:15:16.707Z,7.67
2023-03-21T20:18:20.584Z,9.03
2023-03-21T20:21:25.569Z,7.30
2023-03-21T20:24:28.106Z,10.83
2023-03-21T20:27:30.427Z,6.63
2023-03-21T20:30:32.430Z,8.60
2023-03-21T20:33:34.280Z,9.10
2023-03-21T20:36:40.402Z,34.77
2023-03-21T20:39:42.988Z,10.53
2023-03-21T20:42:48.549Z,13.20
2023-03-21T20:45:50.732Z,13.10
2023-03-21T20:48:52.453Z,13.83
2023-03-21T20:55:16.662Z,10.93
2023-03-21T20:58:40.223Z,10.10
2023-03-21T21:01:43.074Z,9.50
2023-03-21T21:05:11.824Z,6.30
2023-03-21T21:08:06.752Z,5.67
2023-03-21T21:12:02.380Z,9.23
2023-03-21T21:14:31.752Z,6.17
2023-03-21T21:18:01.921Z,8.30
2023-03-21T21:20:57.229Z,6.80
2023-03-21T21:23:59.151Z,11.03
2023-03-21T21:27:01.201Z,5.67
2023-03-21T21:30:03.239Z,8.47
2023-03-21T21:33:05.340Z,7.70
2023-03-21T21:36:08.732Z,8.00
2023-03-21T21:39:11.026Z,10.07
2023-03-21T21:42:12.742Z,6.93
2023-03-21T21:45:15.724Z,6.23
2023-03-21T21:48:17.710Z,7.53
2023-03-21T21:51:26.223Z,10.60
2023-03-21T21:54:30.004Z,10.17
2023-03-21T21:57:34.159Z,9.50
2023-03-21T22:00:37.153Z,11.23
2023-03-21T22:03:45.700Z,7.70
2023-03-21T22:06:47.594Z,11.97
2023-03-21T22:09:50.424Z,10.00
2023-03-21T22:12:52.215Z,10.80
2023-03-21T22:15:54.322Z,9.23
2023-03-21T22:18:56.068Z,11.33
2023-03-21T22:21:58.648Z,10.10
2023-03-21T22:25:00.339Z,8.57
2023-03-21T22:28:02.227Z,9.10
2023-03-21T22:31:13.120Z,9.07
2023-03-21T22:34:14.806Z,9.93
2023-03-21T22:37:16.523Z,7.57
2023-03-21T22:40:18.406Z,7.20
2023-03-21T22:43:20.175Z,8.17
2023-03-21T22:46:21.971Z,5.87
2023-03-21T22:49:23.666Z,7.07
2023-03-21T22:52:25.902Z,6.13
2023-03-21T22:55:27.726Z,6.60
2023-03-21T22:58:29.459Z,9.27
2023-03-21T23:01:31.548Z,6.53
2023-03-21T23:04:33.381Z,7.47
2023-03-21T23:07:35.315Z,5.87
2023-03-21T23:10:39.239Z,7.57
2023-03-21T23:13:41.437Z,13.13
2023-03-21T23:16:45.009Z,7.77
2023-03-21T23:19:46.721Z,7.13
2023-03-21T23:22:48.494Z,9.13
2023-03-21T23:25:50.478Z,6.73
2023-03-21T23:28:52.174Z,6.03
2023-03-21T23:31:53.997Z,8.17
2023-03-21T23:34:55.925Z,8.00
2023-03-21T23:37:57.868Z,9.10
2023-03-21T23:41:04.515Z,10.20
2023-03-21T23:44:06.505Z,9.60
2023-03-21T23:47:08.209Z,8.00
2023-03-21T23:50:10.888Z,6.17
2023-03-21T23:53:13.209Z,7.73
2023-03-21T23:56:21.055Z,5.10
2023-03-21T23:59:22.872Z,6.40
